Time;durP1;ratioP1;P1;durP2;ratioP2;P2;SDS_P1;SDS_P2;PMS_P1;PMS_P2;Temp;Humidity;BMP_temperature;BMP_pressure;BME280_temperature;BME280_humidity;BME280_pressure;Samples;Min_cycle;Max_cycle;Signal;HPM_P1;HPM_P2
2022/04/05 00:00:01;;;;;;;11.73;2.23;;;;;;;5.84;87.30;99949.38;5031319;28;20591;-76
2022/04/05 00:02:26;;;;;;;14.10;3.00;;;;;;;5.85;87.19;99946.00;5045003;28;20365;-76
2022/04/05 00:04:52;;;;;;;14.37;3.00;;;;;;;5.87;86.93;99943.50;5029741;28;20652;-75
2022/04/05 00:07:18;;;;;;;15.53;2.37;;;;;;;5.87;86.71;99943.50;5032398;28;20199;-76
2022/04/05 00:09:43;;;;;;;19.57;2.50;;;;;;;5.92;85.65;99942.78;5033045;28;20660;-76
2022/04/05 00:12:09;;;;;;;18.20;3.43;;;;;;;5.92;85.89;99944.47;5011928;28;20205;-75
2022/04/05 00:14:34;;;;;;;17.13;2.57;;;;;;;5.87;86.68;99944.38;5030028;28;20268;-75
2022/04/05 00:17:00;;;;;;;10.03;2.30;;;;;;;5.87;86.78;99940.94;5011623;28;20233;-75
2022/04/05 00:19:25;;;;;;;12.10;2.40;;;;;;;5.88;85.82;99942.66;5029326;28;20202;-75
2022/04/05 00:21:51;;;;;;;15.07;2.63;;;;;;;5.89;84.71;99936.78;5012597;28;20230;-76
2022/04/05 00:24:17;;;;;;;15.47;2.60;;;;;;;5.89;84.54;99939.31;5030816;28;20186;-75
2022/04/05 00:26:42;;;;;;;12.67;2.93;;;;;;;5.92;84.24;99942.78;5006757;28;20186;-75
2022/04/05 00:29:08;;;;;;;14.50;3.03;;;;;;;5.96;84.50;99944.56;5033464;28;20236;-76
2022/04/05 00:31:34;;;;;;;12.37;2.33;;;;;;;5.96;85.68;99941.16;5029337;28;20186;-75
2022/04/05 00:33:59;;;;;;;15.93;2.77;;;;;;;5.95;85.10;99949.63;5046271;28;20228;-75
2022/04/05 00:36:24;;;;;;;15.90;2.93;;;;;;;5.95;86.05;99953.00;5049223;28;20202;-74
2022/04/05 00:38:50;;;;;;;21.43;3.40;;;;;;;5.97;85.36;99950.50;5036763;28;20197;-74
2022/04/05 00:41:15;;;;;;;11.40;2.97;;;;;;;5.97;86.04;99942.88;5032785;28;20210;-75
2022/04/05 00:43:41;;;;;;;15.33;2.80;;;;;;;5.95;86.29;99947.91;5029275;28;20206;-75
2022/04/05 00:46:07;;;;;;;14.60;2.60;;;;;;;5.97;85.97;99950.50;4995767;28;20723;-75
2022/04/05 00:48:51;;;;;;;11.77;3.10;;;;;;;5.96;86.60;99959.81;5031290;28;20683;-76
2022/04/05 00:51:18;;;;;;;11.70;2.40;;;;;;;5.96;86.45;99952.19;5047331;28;20248;-75
2022/04/05 00:53:49;;;;;;;18.00;2.80;;;;;;;5.94;86.81;99946.22;5048595;28;20615;-76
2022/04/05 00:56:16;;;;;;;11.93;3.07;;;;;;;5.91;87.08;99958.88;5048382;28;20186;-76
2022/04/05 00:58:45;;;;;;;15.33;2.43;;;;;;;5.90;87.29;99952.03;5036582;28;20553;-76
2022/04/05 01:01:15;;;;;;;12.60;2.43;;;;;;;5.87;86.99;99954.53;5029563;28;20670;-75
2022/04/05 01:03:43;;;;;;;16.70;2.83;;;;;;;5.82;86.79;99951.03;5029271;28;20214;-76
2022/04/05 01:06:09;;;;;;;13.97;2.37;;;;;;;5.76;87.40;99953.38;5051715;28;20556;-76
2022/04/05 01:08:35;;;;;;;12.80;3.00;;;;;;;5.72;87.78;99955.81;5034217;28;20170;-75
2022/04/05 01:11:01;;;;;;;18.20;3.40;;;;;;;5.68;87.74;99959.09;5017910;28;20650;-75
2022/04/05 01:13:28;;;;;;;13.70;2.53;;;;;;;5.67;87.78;99955.69;5050876;28;20206;-75
2022/04/05 01:15:54;;;;;;;16.33;3.37;;;;;;;5.67;87.54;99962.47;5028501;28;20186;-75
2022/04/05 01:18:19;;;;;;;16.03;3.17;;;;;;;5.69;87.10;99966.75;5025203;28;20185;-76
2022/04/05 01:20:44;;;;;;;10.40;2.27;;;;;;;5.67;86.42;99959.91;5052609;28;21062;-75
2022/04/05 01:23:10;;;;;;;14.17;2.60;;;;;;;5.69;86.76;99961.66;5024958;28;20202;-75
2022/04/05 01:25:35;;;;;;;12.00;2.33;;;;;;;5.69;86.28;99971.84;5009968;28;20297;-75
2022/04/05 01:28:00;;;;;;;14.27;2.40;;;;;;;5.71;86.09;99971.88;5018282;28;20191;-76
2022/04/05 01:30:26;;;;;;;16.93;2.90;;;;;;;5.72;85.65;99974.47;5031991;28;20183;-75
2022/04/05 01:32:54;;;;;;;12.37;2.20;;;;;;;5.71;85.62;99972.72;5040969;28;20221;-75
2022/04/05 01:35:19;;;;;;;15.83;2.37;;;;;;;5.72;85.41;99976.13;5033718;28;20201;-75
2022/04/05 01:37:44;;;;;;;8.67;1.77;;;;;;;5.71;85.24;99975.25;5045728;28;20560;-75
2022/04/05 01:40:10;;;;;;;12.53;2.60;;;;;;;5.71;85.67;99982.88;5034421;28;20341;-75
2022/04/05 01:42:37;;;;;;;14.80;3.07;;;;;;;5.72;85.58;99976.13;5036199;28;20636;-75
2022/04/05 01:45:03;;;;;;;11.10;2.50;;;;;;;5.68;85.57;99972.66;5032503;28;20178;-75
2022/04/05 01:47:29;;;;;;;12.40;2.30;;;;;;;5.65;85.92;99980.19;5014662;28;20190;-76
2022/04/05 01:49:54;;;;;;;12.63;2.50;;;;;;;5.67;85.60;99978.53;5019332;28;20188;-75
2022/04/05 01:52:19;;;;;;;11.70;2.67;;;;;;;5.69;85.85;99974.38;5029017;28;20225;-76
2022/04/05 01:54:45;;;;;;;11.90;2.20;;;;;;;5.71;85.79;99974.41;5051292;28;20189;-75
2022/04/05 01:57:11;;;;;;;9.53;2.10;;;;;;;5.73;85.52;99980.38;5050729;28;20190;-75
2022/04/05 01:59:38;;;;;;;13.17;2.53;;;;;;;5.74;86.94;99984.63;5013749;28;20240;-76
2022/04/05 02:02:05;;;;;;;16.93;3.00;;;;;;;5.66;87.20;99983.59;5028969;28;20186;-76
2022/04/05 02:04:30;;;;;;;14.50;2.50;;;;;;;5.55;88.46;99979.91;5033166;28;20228;-76
2022/04/05 02:06:56;;;;;;;11.70;2.40;;;;;;;5.48;89.17;99986.50;5033288;28;20275;-75
2022/04/05 02:09:21;;;;;;;8.03;1.83;;;;;;;5.41;88.40;99994.81;5016489;28;20225;-76
2022/04/05 02:11:47;;;;;;;8.80;2.17;;;;;;;5.40;88.03;99993.09;5031276;28;20690;-76
2022/04/05 02:14:31;;;;;;;6.47;1.70;;;;;;;5.33;87.86;99991.22;5017789;28;20255;-75
2022/04/05 02:17:00;;;;;;;11.40;2.13;;;;;;;5.31;87.74;99997.94;5013997;28;20193;-76
2022/04/05 02:19:27;;;;;;;10.50;1.87;;;;;;;5.29;87.56;100002.09;4997482;28;20197;-76
2022/04/05 02:21:53;;;;;;;10.23;1.90;;;;;;;5.26;88.18;99996.09;5031628;28;20186;-76
2022/04/05 02:24:20;;;;;;;15.07;2.40;;;;;;;5.25;87.98;100002.00;5016826;28;20176;-76
2022/04/05 02:26:46;;;;;;;13.53;2.20;;;;;;;5.23;88.54;99994.31;5032644;28;20189;-76
2022/04/05 02:29:13;;;;;;;12.27;2.00;;;;;;;5.22;88.33;99996.81;5031906;28;20651;-75
2022/04/05 02:31:43;;;;;;;11.73;2.53;;;;;;;5.23;88.60;100004.47;5031992;28;20846;-76
2022/04/05 02:34:09;;;;;;;12.60;2.00;;;;;;;5.23;88.60;100001.94;5025334;28;20702;-75
2022/04/05 02:36:40;;;;;;;11.93;2.13;;;;;;;5.20;88.97;100003.53;5012794;28;20906;-76
2022/04/05 02:39:08;;;;;;;12.17;2.37;;;;;;;5.20;88.15;100001.00;5015805;28;20225;-76
2022/04/05 02:41:36;;;;;;;12.67;2.57;;;;;;;5.21;89.00;100007.78;5032039;28;20197;-76
2022/04/05 02:44:02;;;;;;;18.67;2.80;;;;;;;5.21;88.70;100008.63;5023249;28;20210;-76
2022/04/05 02:46:29;;;;;;;16.57;2.63;;;;;;;5.20;89.12;100009.47;4996584;28;20179;-76
2022/04/05 02:48:56;;;;;;;11.03;2.57;;;;;;;5.21;89.45;100006.09;5014428;28;20724;-75
2022/04/05 02:51:30;;;;;;;16.40;3.37;;;;;;;5.23;89.21;100014.63;4997727;28;20224;-76
2022/04/05 02:53:59;;;;;;;11.73;2.30;;;;;;;5.23;90.03;100011.22;5018220;28;20666;-76
2022/04/05 02:56:27;;;;;;;16.10;3.00;;;;;;;5.28;90.02;100024.88;5031625;28;20650;-75
2022/04/05 02:58:54;;;;;;;13.60;2.63;;;;;;;5.31;90.23;100028.38;5017080;28;20182;-75
2022/04/05 03:01:20;;;;;;;13.67;2.70;;;;;;;5.30;90.74;100056.25;5012932;28;20562;-75
2022/04/05 03:03:47;;;;;;;7.80;1.73;;;;;;;4.83;89.90;100044.75;5012675;28;20716;-75
2022/04/05 03:06:14;;;;;;;5.77;1.10;;;;;;;4.51;88.80;100042.13;5012445;28;20600;-75
2022/04/05 03:08:40;;;;;;;6.13;1.40;;;;;;;4.39;88.85;100046.78;5015297;28;20185;-75
2022/04/05 03:11:08;;;;;;;3.47;1.23;;;;;;;4.41;89.29;100050.22;5012771;28;20175;-75
2022/04/05 03:13:35;;;;;;;10.07;2.27;;;;;;;4.48;89.03;100059.75;5012640;28;20194;-75
2022/04/05 03:16:01;;;;;;;7.23;1.70;;;;;;;4.54;89.51;100060.81;5012213;28;20277;-75
2022/04/05 03:18:27;;;;;;;6.67;2.00;;;;;;;4.53;89.86;100058.22;5014924;28;20198;-76
2022/04/05 03:20:53;;;;;;;8.57;1.70;;;;;;;4.49;90.52;100057.28;5032015;28;20205;-75
2022/04/05 03:23:21;;;;;;;7.77;1.57;;;;;;;4.47;90.39;100058.88;5031048;28;20216;-75
2022/04/05 03:25:47;;;;;;;7.93;2.00;;;;;;;4.49;90.12;100064.88;5004890;28;20622;-75
2022/04/05 03:28:14;;;;;;;8.60;2.00;;;;;;;4.52;90.71;100064.09;5010429;28;20278;-76
2022/04/05 03:30:39;;;;;;;9.43;2.30;;;;;;;4.55;90.43;100064.22;5031071;28;20308;-75
2022/04/05 03:33:06;;;;;;;9.23;2.07;;;;;;;4.55;90.41;100070.13;5011989;28;20577;-75
2022/04/05 03:35:33;;;;;;;10.73;2.00;;;;;;;4.51;90.74;100073.38;4995225;28;20201;-76
2022/04/05 03:37:59;;;;;;;10.07;2.40;;;;;;;4.52;90.83;100080.16;5003160;28;20268;-76
2022/04/05 03:40:26;;;;;;;8.70;2.30;;;;;;;4.51;90.88;100078.44;5013762;28;20210;-75
2022/04/05 03:42:53;;;;;;;12.83;2.30;;;;;;;4.53;90.70;100086.09;5031597;28;20201;-75
2022/04/05 03:45:19;;;;;;;9.60;2.03;;;;;;;4.54;90.40;100082.75;5013763;28;20193;-75
2022/04/05 03:47:45;;;;;;;9.20;2.70;;;;;;;4.56;90.43;100089.56;5012061;28;20194;-75
2022/04/05 03:50:12;;;;;;;10.63;2.47;;;;;;;4.58;90.46;100087.97;5028316;28;20186;-75
2022/04/05 03:52:41;;;;;;;10.23;2.23;;;;;;;4.60;90.38;100088.03;5004259;28;20240;-75
2022/04/05 03:55:07;;;;;;;11.17;2.73;;;;;;;4.57;90.96;100092.97;5029933;28;20285;-76
2022/04/05 03:57:35;;;;;;;14.07;2.50;;;;;;;4.55;91.32;100100.53;5029499;28;20186;-75
2022/04/05 04:00:02;;;;;;;12.33;2.43;;;;;;;4.54;91.03;100095.41;5030891;28;20210;-76
2022/04/05 04:02:34;;;;;;;11.17;2.00;;;;;;;4.56;91.32;100099.72;5049252;28;20206;-75
2022/04/05 04:05:00;;;;;;;11.80;2.13;;;;;;;4.57;90.84;100101.47;5029142;28;20185;-75
2022/04/05 04:07:27;;;;;;;11.70;2.23;;;;;;;4.54;90.61;100096.28;5029699;28;20182;-75
2022/04/05 04:09:52;;;;;;;9.10;2.10;;;;;;;4.56;90.31;100106.47;5011634;28;20228;-75
2022/04/05 04:12:18;;;;;;;11.13;2.07;;;;;;;4.56;90.08;100102.25;5028080;28;20206;-75
2022/04/05 04:14:44;;;;;;;8.57;1.57;;;;;;;4.51;89.62;100105.47;4996798;28;20669;-76
2022/04/05 04:17:17;;;;;;;7.80;1.90;;;;;;;4.49;89.94;100107.97;4996075;28;20650;-75
2022/04/05 04:19:43;;;;;;;11.13;2.00;;;;;;;4.46;90.36;100109.53;5024502;28;20194;-75
2022/04/05 04:22:08;;;;;;;11.23;2.67;;;;;;;4.44;89.70;100109.50;5047291;28;20588;-76
2022/04/05 04:24:34;;;;;;;8.17;2.00;;;;;;;4.47;89.56;100109.56;5030244;28;20765;-75
2022/04/05 04:26:59;;;;;;;10.77;2.47;;;;;;;4.45;89.75;100120.47;5031215;28;20228;-75
2022/04/05 04:29:26;;;;;;;10.77;2.20;;;;;;;4.44;89.51;100119.63;5030869;28;20323;-75
2022/04/05 04:31:51;;;;;;;11.47;2.10;;;;;;;4.45;89.18;100123.00;5016039;28;20269;-75
2022/04/05 04:34:17;;;;;;;9.97;1.90;;;;;;;4.50;87.83;100122.34;5021591;28;20259;-76
2022/04/05 04:36:42;;;;;;;11.40;2.20;;;;;;;4.47;88.46;100119.69;5034247;28;20185;-75
2022/04/05 04:39:09;;;;;;;9.77;1.87;;;;;;;4.47;88.13;100124.78;5044345;28;20220;-75
2022/04/05 04:41:34;;;;;;;13.37;2.03;;;;;;;4.44;88.30;100133.97;5033507;28;20257;-74
2022/04/05 04:44:00;;;;;;;10.67;2.10;;;;;;;4.40;88.62;100135.53;5036699;28;20295;-76
2022/04/05 04:46:25;;;;;;;12.60;1.93;;;;;;;4.39;89.07;100138.03;5038450;28;20200;-75
2022/04/05 04:48:50;;;;;;;12.33;2.77;;;;;;;4.38;89.95;100139.69;5051456;28;20193;-75
2022/04/05 04:51:16;;;;;;;10.97;2.53;;;;;;;4.41;89.52;100141.44;5016653;28;20191;-75
2022/04/05 04:53:41;;;;;;;9.60;1.73;;;;;;;4.38;90.44;100149.81;5033209;28;20204;-75
2022/04/05 04:56:08;;;;;;;10.77;2.10;;;;;;;4.39;90.41;100151.56;5039801;28;20186;-76
2022/04/05 04:58:33;;;;;;;13.13;2.27;;;;;;;4.42;90.08;100160.94;5032899;28;20582;-75
2022/04/05 05:00:59;;;;;;;9.30;2.63;;;;;;;4.41;90.19;100169.31;5020938;28;20213;-76
2022/04/05 05:03:24;;;;;;;9.23;2.53;;;;;;;4.43;90.60;100168.59;5002755;28;20587;-76
2022/04/05 05:05:49;;;;;;;14.57;2.43;;;;;;;4.41;90.81;100161.72;5046567;28;20202;-75
2022/04/05 05:08:15;;;;;;;12.93;2.30;;;;;;;4.42;90.51;100171.06;5032231;28;20201;-75
2022/04/05 05:10:40;;;;;;;11.27;2.00;;;;;;;4.40;91.18;100176.09;5032211;28;20187;-75
2022/04/05 05:13:05;;;;;;;14.80;2.40;;;;;;;4.40;90.98;100175.22;5032151;28;20206;-75
2022/04/05 05:15:31;;;;;;;10.30;2.20;;;;;;;4.41;90.64;100190.47;5014499;28;20193;-75
2022/04/05 05:17:56;;;;;;;10.33;2.60;;;;;;;4.44;90.74;100179.56;5030932;28;20190;-75
2022/04/05 05:20:22;;;;;;;10.33;2.67;;;;;;;4.47;90.64;100180.53;5016018;28;20233;-76
2022/04/05 05:22:47;;;;;;;11.67;1.90;;;;;;;4.51;90.21;100184.03;5014440;28;20220;-76
2022/04/05 05:25:13;;;;;;;10.20;2.63;;;;;;;4.56;90.32;100182.50;5031049;28;20186;-76
2022/04/05 05:27:38;;;;;;;10.57;2.47;;;;;;;4.62;90.29;100192.84;5031003;28;20257;-76
2022/04/05 05:30:08;;;;;;;8.40;2.10;;;;;;;4.67;89.29;100197.25;5014611;28;20190;-76
2022/04/05 05:32:42;;;;;;;9.73;2.30;;;;;;;4.70;89.52;100199.88;5031039;28;20224;-76
2022/04/05 05:35:08;;;;;;;13.23;2.37;;;;;;;4.78;89.11;100202.69;5032165;28;20248;-76
2022/04/05 05:37:33;;;;;;;8.67;2.40;;;;;;;4.80;89.42;100199.38;5031790;28;20186;-76
2022/04/05 05:39:58;;;;;;;13.93;2.47;;;;;;;4.85;88.83;100202.91;5030644;28;20225;-76
2022/04/05 05:42:23;;;;;;;9.17;2.10;;;;;;;4.90;88.18;100196.31;5031790;28;20206;-76
2022/04/05 05:44:50;;;;;;;10.43;3.00;;;;;;;4.94;88.18;100202.31;5030651;28;20565;-77
2022/04/05 05:47:15;;;;;;;11.50;2.50;;;;;;;4.99;88.63;100206.75;5029780;28;20794;-76
2022/04/05 05:49:40;;;;;;;11.50;2.43;;;;;;;5.03;88.23;100205.16;5030608;28;20293;-76
2022/04/05 05:52:06;;;;;;;8.10;1.73;;;;;;;5.03;87.63;100213.63;5030760;28;20182;-75
2022/04/05 05:54:31;;;;;;;8.80;1.83;;;;;;;5.01;88.32;100222.84;5032256;28;20175;-76
2022/04/05 05:56:56;;;;;;;13.40;1.90;;;;;;;4.99;88.30;100229.56;5031954;28;20191;-79
2022/04/05 05:59:23;;;;;;;8.00;2.00;;;;;;;4.98;88.73;100227.81;5026442;28;20199;-78
2022/04/05 06:01:48;;;;;;;9.60;2.27;;;;;;;4.96;88.03;100216.78;5020231;28;20241;-74
2022/04/05 06:04:14;;;;;;;11.00;2.10;;;;;;;5.03;87.78;100228.84;5031253;28;20211;-75
2022/04/05 06:06:39;;;;;;;10.33;2.07;;;;;;;5.11;87.65;100224.84;4997571;28;20202;-75
2022/04/05 06:09:06;;;;;;;7.77;2.00;;;;;;;5.21;86.83;100236.16;4999104;28;20214;-76
2022/04/05 06:11:32;;;;;;;7.17;1.70;;;;;;;5.32;87.02;100240.75;5032130;28;20632;-76
2022/04/05 06:13:57;;;;;;;12.87;2.90;;;;;;;5.33;86.47;100242.47;5032447;28;20206;-77
2022/04/05 06:16:23;;;;;;;11.13;1.83;;;;;;;5.35;86.00;100235.75;5032462;28;20185;-76
2022/04/05 06:18:48;;;;;;;9.13;1.90;;;;;;;5.43;85.67;100241.91;5013654;28;20221;-76
2022/04/05 06:21:19;;;;;;;10.23;2.33;;;;;;;5.39;85.68;100250.25;5031588;28;20593;-76
2022/04/05 06:23:45;;;;;;;4.87;1.67;;;;;;;5.41;85.83;100250.31;5016932;28;20207;-75
2022/04/05 06:26:11;;;;;;;9.97;2.00;;;;;;;5.51;85.65;100255.69;5021591;28;20604;-75
2022/04/05 06:28:37;;;;;;;10.27;2.20;;;;;;;5.76;84.85;100265.75;5030832;28;20213;-74
2022/04/05 06:31:02;;;;;;;11.27;2.83;;;;;;;5.97;84.57;100263.00;5028006;28;20611;-75
2022/04/05 06:33:28;;;;;;;13.47;2.40;;;;;;;6.08;84.49;100257.38;5030769;28;20329;-74
2022/04/05 06:35:56;;;;;;;8.13;1.73;;;;;;;6.23;83.75;100259.50;5031104;28;20527;-74
2022/04/05 06:38:22;;;;;;;8.10;2.10;;;;;;;6.30;83.69;100253.75;5029846;28;20186;-75
2022/04/05 06:40:47;;;;;;;12.63;2.27;;;;;;;6.29;82.02;100270.69;5029816;28;20707;-75
2022/04/05 06:43:14;;;;;;;10.27;2.23;;;;;;;6.37;82.58;100268.34;5031107;28;20237;-75
2022/04/05 06:45:41;;;;;;;12.93;2.60;;;;;;;6.55;81.81;100269.72;5030625;28;20185;-75
2022/04/05 06:48:06;;;;;;;14.03;2.87;;;;;;;6.74;80.83;100271.00;5030682;28;20558;-75
2022/04/05 06:50:41;;;;;;;10.50;1.87;;;;;;;7.07;80.29;100275.25;5025692;28;20190;-76
2022/04/05 06:53:08;;;;;;;10.53;1.90;;;;;;;7.12;78.46;100275.34;5013649;28;20205;-77
2022/04/05 06:55:34;;;;;;;9.23;1.77;;;;;;;7.17;77.15;100284.81;5013514;28;20186;-76
2022/04/05 06:58:00;;;;;;;12.73;1.83;;;;;;;7.18;76.15;100278.06;5014114;28;20186;-76
2022/04/05 07:00:26;;;;;;;5.57;1.50;;;;;;;7.59;75.92;100278.16;5030502;28;20214;-76
2022/04/05 07:02:53;;;;;;;7.13;1.53;;;;;;;7.95;74.39;100276.38;5032649;28;20206;-77
2022/04/05 07:05:19;;;;;;;9.73;1.83;;;;;;;7.95;74.32;100281.47;5016119;28;20194;-76
2022/04/05 07:07:45;;;;;;;6.57;1.47;;;;;;;7.87;74.84;100285.56;5034189;28;20208;-76
2022/04/05 07:10:12;;;;;;;4.60;1.40;;;;;;;7.65;74.46;100287.63;5032937;28;20193;-76
2022/04/05 07:12:37;;;;;;;9.03;2.40;;;;;;;7.49;75.05;100288.97;5040100;28;20206;-76
2022/04/05 07:15:04;;;;;;;10.70;2.23;;;;;;;7.21;74.74;100289.16;5025811;28;20245;-76
2022/04/05 07:17:30;;;;;;;7.97;2.00;;;;;;;7.33;75.73;100289.44;5028048;28;20202;-76
2022/04/05 07:19:55;;;;;;;6.83;1.40;;;;;;;7.35;75.77;100292.88;5030029;28;20222;-75
2022/04/05 07:22:21;;;;;;;7.90;2.50;;;;;;;7.27;74.75;100291.00;5030221;28;20297;-76
2022/04/05 07:24:47;;;;;;;11.13;1.97;;;;;;;7.23;75.95;100289.22;5011636;28;20218;-75
2022/04/05 07:27:13;;;;;;;8.90;1.57;;;;;;;7.48;74.92;100282.16;5030001;28;20209;-75
2022/04/05 07:29:39;;;;;;;9.20;1.70;;;;;;;7.70;74.27;100294.53;5026888;28;20651;-76
2022/04/05 07:32:05;;;;;;;7.20;1.40;;;;;;;8.00;73.36;100284.97;5029072;28;20205;-76
2022/04/05 07:34:30;;;;;;;7.53;1.53;;;;;;;7.93;72.67;100279.72;5028548;28;20594;-75
2022/04/05 07:36:56;;;;;;;7.33;1.40;;;;;;;7.55;74.29;100289.09;5011566;28;20206;-75
2022/04/05 07:39:23;;;;;;;4.13;1.27;;;;;;;7.14;74.76;100301.72;5010955;28;20202;-75
2022/04/05 07:41:48;;;;;;;7.37;1.53;;;;;;;6.97;75.78;100310.63;5009980;28;20217;-75
2022/04/05 07:44:14;;;;;;;5.17;1.50;;;;;;;7.00;76.86;100303.91;5029443;28;20206;-75
2022/04/05 07:46:39;;;;;;;7.53;1.40;;;;;;;7.01;76.16;100303.06;5029016;28;20269;-75
2022/04/05 07:49:05;;;;;;;5.67;1.60;;;;;;;7.12;75.92;100308.44;5029973;28;20186;-75
2022/04/05 07:51:30;;;;;;;5.57;1.17;;;;;;;7.37;74.83;100309.06;5029706;28;20182;-75
2022/04/05 07:53:55;;;;;;;5.97;1.30;;;;;;;7.66;73.91;100307.19;5028198;28;20267;-76
2022/04/05 07:56:20;;;;;;;3.57;1.27;;;;;;;8.22;72.64;100314.34;5029539;28;20190;-75
2022/04/05 07:58:47;;;;;;;6.33;1.33;;;;;;;8.17;70.45;100306.59;5000897;28;20199;-76
2022/04/05 08:01:12;;;;;;;4.50;1.43;;;;;;;8.31;70.05;100307.75;4991831;28;20669;-75
2022/04/05 08:03:38;;;;;;;6.10;1.30;;;;;;;8.66;70.34;100304.16;5007995;28;20309;-76
2022/04/05 08:06:04;;;;;;;6.97;1.33;;;;;;;8.42;69.34;100302.84;5009455;28;20286;-76
2022/04/05 08:08:29;;;;;;;5.43;1.10;;;;;;;8.65;69.53;100301.56;5009370;28;20263;-76
2022/04/05 08:10:56;;;;;;;5.47;1.43;;;;;;;8.87;69.83;100306.22;4999077;28;20683;-76
2022/04/05 08:13:22;;;;;;;5.10;1.10;;;;;;;8.97;69.23;100300.44;5011809;28;20991;-76
2022/04/05 08:15:48;;;;;;;3.83;0.80;;;;;;;9.13;68.79;100303.28;5033018;28;20198;-76
2022/04/05 08:18:13;;;;;;;5.87;1.17;;;;;;;9.28;68.34;100303.53;5014552;28;20190;-76
2022/04/05 08:20:41;;;;;;;6.00;1.50;;;;;;;9.24;67.14;100304.31;5033186;28;20305;-76
2022/04/05 08:23:08;;;;;;;6.67;1.50;;;;;;;9.45;68.11;100296.97;5015216;28;20221;-76
2022/04/05 08:25:33;;;;;;;6.10;1.63;;;;;;;9.48;67.00;100299.56;5025041;28;20757;-76
2022/04/05 08:27:59;;;;;;;8.27;1.83;;;;;;;10.00;65.45;100296.88;5031959;28;20212;-76
2022/04/05 08:30:24;;;;;;;6.80;1.47;;;;;;;10.04;62.75;100287.56;5031640;28;20194;-76
2022/04/05 08:32:50;;;;;;;6.97;1.60;;;;;;;9.57;65.79;100297.16;5010968;28;20220;-76
2022/04/05 08:35:18;;;;;;;5.47;1.67;;;;;;;10.00;63.02;100293.50;5032682;28;20622;-76
2022/04/05 08:37:45;;;;;;;6.97;1.70;;;;;;;10.41;62.39;100288.03;5009071;28;20190;-76
2022/04/05 08:40:13;;;;;;;6.47;1.37;;;;;;;9.88;62.76;100293.31;5029776;28;20215;-76
2022/04/05 08:42:43;;;;;;;7.40;1.53;;;;;;;9.67;58.48;100291.31;4995349;28;20265;-76
2022/04/05 08:45:11;;;;;;;8.10;2.13;;;;;;;9.79;59.94;100295.75;4995231;28;20186;-76
2022/04/05 08:47:43;;;;;;;7.63;1.77;;;;;;;10.15;60.63;100286.91;5011864;28;20221;-77
2022/04/05 08:50:09;;;;;;;6.60;1.50;;;;;;;9.71;60.89;100293.09;5009608;28;20257;-76
2022/04/05 08:52:35;;;;;;;6.07;1.50;;;;;;;9.44;62.87;100294.41;5014042;28;20834;-75
2022/04/05 08:55:01;;;;;;;5.77;1.90;;;;;;;9.73;62.37;100295.69;5024125;28;20202;-72
2022/04/05 08:57:26;;;;;;;7.70;1.43;;;;;;;9.67;61.09;100290.50;5026300;28;20218;-74
2022/04/05 08:59:52;;;;;;;4.50;1.13;;;;;;;9.67;61.09;100295.59;5012103;28;20289;-75
2022/04/05 09:02:25;;;;;;;8.53;1.60;;;;;;;9.98;60.38;100287.47;5032338;28;20198;-74
2022/04/05 09:04:51;;;;;;;7.93;1.40;;;;;;;10.19;58.54;100291.19;5014241;28;20194;-74
2022/04/05 09:07:31;;;;;;;5.03;1.20;;;;;;;9.94;56.93;100286.59;5016798;28;20195;-75
2022/04/05 09:10:14;;;;;;;7.57;1.60;;;;;;;10.10;56.65;100291.06;5012433;28;20241;-75
2022/04/05 09:12:47;;;;;;;4.77;1.60;;;;;;;10.01;58.69;100292.63;5012358;28;20243;-75
2022/04/05 09:15:15;;;;;;;4.00;1.70;;;;;;;9.75;59.02;100292.31;5012030;28;20277;-75
2022/04/05 09:17:43;;;;;;;6.97;1.20;;;;;;;9.85;59.04;100290.72;5031193;28;20723;-77
2022/04/05 09:20:10;;;;;;;5.20;1.10;;;;;;;9.75;61.09;100288.88;5034212;28;20218;-79
2022/04/05 09:22:35;;;;;;;4.87;1.20;;;;;;;10.35;60.34;100284.53;5020415;28;20205;-78
2022/04/05 09:25:09;;;;;;;2.60;0.90;;;;;;;10.56;58.79;100289.91;5036124;28;20189;-80
2022/04/05 09:27:54;;;;;;;3.60;1.00;;;;;;;10.45;57.40;100282.09;5038092;28;20186;-77
2022/04/05 09:30:22;;;;;;;5.03;1.30;;;;;;;11.39;56.96;100289.78;5022098;28;20257;-80
2022/04/05 09:32:48;;;;;;;3.33;1.10;;;;;;;11.19;56.72;100287.91;5023428;28;20245;-79
2022/04/05 09:35:16;;;;;;;5.03;1.00;;;;;;;11.22;57.89;100287.94;5020228;28;20583;-78
2022/04/05 09:37:41;;;;;;;8.47;1.87;;;;;;;12.24;54.60;100292.00;5036405;28;20202;-78
2022/04/05 09:40:32;;;;;;;7.60;1.30;;;;;;;12.23;54.79;100280.03;5017253;28;20581;-78
2022/04/05 09:43:02;;;;;;;3.97;1.30;;;;;;;11.65;54.60;100284.84;5021007;28;20210;-78
2022/04/05 09:45:49;;;;;;;5.73;1.30;;;;;;;11.59;56.08;100284.78;5039915;28;20187;-78
2022/04/05 09:48:18;;;;;;;4.23;1.30;;;;;;;11.97;56.20;100285.88;5038135;28;20263;-77
2022/04/05 09:50:58;;;;;;;5.63;1.80;;;;;;;12.41;54.97;100276.63;5021803;28;20205;-78
2022/04/05 09:53:24;;;;;;;5.27;1.30;;;;;;;12.46;54.58;100280.06;5037457;28;20229;-77
2022/04/05 09:56:17;;;;;;;7.43;1.53;;;;;;;12.48;55.28;100278.34;5015896;28;20648;-77
2022/04/05 09:58:51;;;;;;;4.97;1.30;;;;;;;12.34;54.00;100277.47;5034090;28;20554;-79
2022/04/05 10:01:18;;;;;;;4.53;1.30;;;;;;;12.50;54.04;100277.50;5015177;28;20219;-77
2022/04/05 10:03:57;;;;;;;5.33;1.47;;;;;;;11.86;56.85;100280.72;5014666;28;20207;-76
2022/04/05 10:06:23;;;;;;;3.90;1.40;;;;;;;11.76;58.75;100272.97;5032434;28;20194;-77
2022/04/05 10:08:48;;;;;;;5.53;1.40;;;;;;;12.34;57.30;100274.91;5033983;28;20206;-78
2022/04/05 10:11:14;;;;;;;6.97;1.93;;;;;;;12.69;56.24;100273.28;5033196;28;20183;-77
2022/04/05 10:13:40;;;;;;;5.60;1.50;;;;;;;12.53;55.73;100274.13;5034529;28;20749;-76
2022/04/05 10:16:08;;;;;;;5.67;1.67;;;;;;;12.19;57.99;100279.97;4998233;28;20719;-72
2022/04/05 10:18:35;;;;;;;4.83;1.93;;;;;;;11.91;59.10;100285.84;5013341;28;20197;-74
2022/04/05 10:21:02;;;;;;;7.63;1.40;;;;;;;11.63;60.63;100286.56;5031306;28;20232;-72
2022/04/05 10:23:28;;;;;;;3.13;1.50;;;;;;;10.87;65.05;100286.81;5031098;28;20207;-75
2022/04/05 10:25:53;;;;;;;4.93;1.43;;;;;;;10.41;66.94;100290.59;5030829;28;20194;-75
2022/04/05 10:28:29;;;;;;;4.90;1.60;;;;;;;9.98;66.44;100300.25;5031378;28;20285;-75
2022/04/05 10:31:06;;;;;;;5.93;1.60;;;;;;;9.88;68.07;100296.75;5030803;28;20166;-75
2022/04/05 10:33:54;;;;;;;5.10;1.97;;;;;;;9.67;69.87;100301.56;5030518;28;20264;-76
2022/04/05 10:36:23;;;;;;;6.20;1.73;;;;;;;9.32;72.23;100305.31;5029531;28;20182;-75
2022/04/05 10:39:11;;;;;;;4.43;1.50;;;;;;;9.11;72.28;100304.06;5030457;28;20712;-75
2022/04/05 10:41:37;;;;;;;6.00;1.43;;;;;;;9.02;73.26;100299.69;5030368;28;20218;-76
2022/04/05 10:44:18;;;;;;;4.97;1.97;;;;;;;9.06;74.83;100298.91;5030620;28;20198;-75
2022/04/05 10:46:53;;;;;;;10.50;2.10;;;;;;;9.21;74.14;100309.38;5029099;28;20194;-75
2022/04/05 10:49:40;;;;;;;5.53;1.83;;;;;;;9.50;73.37;100304.72;5030500;28;20182;-75
2022/04/05 10:52:10;;;;;;;7.07;1.93;;;;;;;9.42;71.97;100299.50;5030220;28;20188;-75
2022/04/05 10:54:47;;;;;;;4.67;1.67;;;;;;;9.31;72.02;100289.94;5030144;28;20573;-74
2022/04/05 10:57:34;;;;;;;5.23;1.97;;;;;;;9.30;73.59;100298.44;5030774;28;20186;-75
2022/04/05 11:00:21;;;;;;;6.23;1.50;;;;;;;9.11;74.04;100298.97;5028894;28;20257;-75
2022/04/05 11:03:01;;;;;;;5.90;2.10;;;;;;;9.05;73.17;100306.53;5035279;28;20288;-75
2022/04/05 11:05:36;;;;;;;8.57;1.93;;;;;;;8.87;73.98;100309.66;5034917;28;20185;-76
2022/04/05 11:08:09;;;;;;;7.10;1.80;;;;;;;8.71;75.10;100301.69;5030684;28;20252;-76
2022/04/05 11:10:37;;;;;;;10.40;2.33;;;;;;;8.65;75.68;100302.44;5029979;28;20293;-76
2022/04/05 11:13:03;;;;;;;6.33;2.03;;;;;;;8.61;76.47;100304.94;5023464;28;20350;-75
2022/04/05 11:15:53;;;;;;;5.83;2.10;;;;;;;8.46;76.23;100310.59;5030299;28;20281;-75
2022/04/05 11:18:29;;;;;;;4.30;2.40;;;;;;;8.45;76.69;100310.56;5014727;28;20202;-75
2022/04/05 11:20:56;;;;;;;6.47;2.33;;;;;;;8.39;78.52;100313.84;5024442;28;20195;-75
2022/04/05 11:23:44;;;;;;;8.30;2.53;;;;;;;8.30;77.96;100311.09;5022594;28;20214;-75
2022/04/05 11:26:38;;;;;;;8.77;2.70;;;;;;;8.74;79.12;100311.94;5008876;28;20260;-75
2022/04/05 11:29:19;;;;;;;6.57;2.43;;;;;;;8.95;78.53;100297.88;5014498;28;20835;-75
2022/04/05 11:31:44;;;;;;;8.77;2.23;;;;;;;9.21;76.32;100296.59;5017872;28;20193;-76